Time;durP1;ratioP1;P1;durP2;ratioP2;P2;SDS_P1;SDS_P2;PMS_P1;PMS_P2;Temp;Humidity;BMP_temperature;BMP_pressure;BME280_temperature;BME280_humidity;BME280_pressure;Samples;Min_cycle;Max_cycle;Signal;HPM_P1;HPM_P2
2021/03/19 00:01:49;;;;;;;10.20;6.97;;;3.20;69.70;;;;;;5032380;28;20048;-64
2021/03/19 00:04:19;;;;;;;12.98;7.53;;;3.20;69.60;;;;;;5036148;28;20030;-63
2021/03/19 00:06:48;;;;;;;11.45;7.20;;;3.10;69.60;;;;;;5037430;28;20045;-64
2021/03/19 00:09:13;;;;;;;10.00;7.10;;;3.10;69.50;;;;;;5032598;28;20038;-64
2021/03/19 00:11:40;;;;;;;13.52;7.88;;;3.10;69.60;;;;;;5031735;28;20052;-64
2021/03/19 00:14:09;;;;;;;14.10;7.38;;;3.10;69.60;;;;;;5036639;28;20060;-64
2021/03/19 00:16:35;;;;;;;12.10;7.43;;;3.10;69.60;;;;;;5034178;28;20037;-64
2021/03/19 00:19:04;;;;;;;12.48;7.85;;;3.10;69.60;;;;;;5033961;28;20033;-64
2021/03/19 00:21:33;;;;;;;13.40;7.82;;;3.10;69.60;;;;;;5025673;28;20064;-63
2021/03/19 00:23:59;;;;;;;15.27;8.38;;;3.10;69.60;;;;;;5034288;28;20568;-64
2021/03/19 00:26:29;;;;;;;12.77;7.97;;;3.10;69.60;;;;;;5030127;28;20043;-63
2021/03/19 00:28:59;;;;;;;12.55;7.53;;;3.10;69.70;;;;;;5032596;28;20120;-63
2021/03/19 00:31:25;;;;;;;12.88;8.40;;;3.10;69.70;;;;;;5036071;28;20116;-64
2021/03/19 00:33:51;;;;;;;13.07;8.52;;;3.00;69.80;;;;;;5036591;28;20139;-64
2021/03/19 00:36:18;;;;;;;12.82;7.78;;;3.00;70.00;;;;;;5036276;28;20037;-63
2021/03/19 00:38:46;;;;;;;12.65;8.25;;;3.00;70.00;;;;;;5016751;28;20041;-63
2021/03/19 00:41:14;;;;;;;12.90;7.80;;;2.90;70.10;;;;;;5033590;28;20036;-63
2021/03/19 00:43:40;;;;;;;13.85;8.10;;;2.90;70.10;;;;;;5029469;28;20153;-64
2021/03/19 00:46:05;;;;;;;12.50;7.57;;;2.90;70.20;;;;;;5035813;28;20552;-63
2021/03/19 00:48:31;;;;;;;11.75;8.13;;;2.90;70.30;;;;;;5029895;28;20030;-63
2021/03/19 00:50:56;;;;;;;14.77;8.27;;;2.90;70.30;;;;;;5033605;28;20033;-64
2021/03/19 00:53:22;;;;;;;13.20;8.43;;;2.90;70.30;;;;;;5030170;28;20037;-63
2021/03/19 00:55:55;;;;;;;14.30;8.63;;;2.90;70.30;;;;;;5041058;28;20040;-63
2021/03/19 00:58:23;;;;;;;11.90;7.80;;;2.90;70.30;;;;;;5031648;28;20040;-63
2021/03/19 01:00:53;;;;;;;16.17;8.65;;;2.90;70.10;;;;;;5032035;28;20037;-64
2021/03/19 01:03:24;;;;;;;14.57;7.95;;;2.90;70.30;;;;;;5035535;28;20029;-64
2021/03/19 01:05:52;;;;;;;13.73;8.48;;;2.90;70.20;;;;;;5038465;28;20549;-63
2021/03/19 01:08:17;;;;;;;13.98;7.50;;;2.90;70.10;;;;;;5033804;28;20029;-64
2021/03/19 01:10:52;;;;;;;13.13;8.15;;;2.90;70.10;;;;;;5032072;28;20389;-63
2021/03/19 01:13:20;;;;;;;13.55;8.20;;;3.00;70.20;;;;;;5034282;28;20055;-64
2021/03/19 01:15:48;;;;;;;10.25;7.53;;;2.90;70.00;;;;;;5035811;28;20488;-64
2021/03/19 01:18:19;;;;;;;13.68;8.13;;;2.90;70.10;;;;;;5036962;28;20133;-64
2021/03/19 01:20:48;;;;;;;14.13;8.25;;;2.90;70.10;;;;;;5034014;28;20120;-64
2021/03/19 01:23:14;;;;;;;13.32;8.07;;;2.90;70.10;;;;;;5036204;28;20094;-64
2021/03/19 01:25:42;;;;;;;15.63;8.00;;;3.00;70.20;;;;;;5040289;28;20396;-64
2021/03/19 01:28:15;;;;;;;12.90;7.60;;;2.90;70.10;;;;;;5033757;28;20044;-64
2021/03/19 01:30:43;;;;;;;15.80;8.80;;;2.90;70.10;;;;;;5038796;28;20037;-64
2021/03/19 01:33:14;;;;;;;14.43;8.40;;;3.00;70.10;;;;;;5038461;28;20033;-63
2021/03/19 01:35:41;;;;;;;14.27;8.65;;;2.90;70.00;;;;;;5033071;28;20444;-64
2021/03/19 01:38:07;;;;;;;14.52;7.95;;;2.90;70.00;;;;;;5035267;28;20033;-64
2021/03/19 01:40:43;;;;;;;15.20;8.77;;;2.90;70.00;;;;;;5034517;28;20040;-64
2021/03/19 01:43:26;;;;;;;16.75;9.52;;;2.90;70.10;;;;;;5039748;28;20032;-64
2021/03/19 01:46:25;;;;;;;14.00;8.60;;;2.90;70.30;;;;;;5037044;28;20037;-63
2021/03/19 01:49:29;;;;;;;15.10;9.10;;;2.90;70.30;;;;;;5033217;28;20033;-63
2021/03/19 01:52:32;;;;;;;15.02;8.35;;;2.80;70.20;;;;;;5037020;28;20390;-64
2021/03/19 01:55:38;;;;;;;13.05;7.88;;;2.80;70.10;;;;;;5037012;28;20029;-63
2021/03/19 01:58:41;;;;;;;14.63;8.45;;;2.80;70.10;;;;;;5037018;28;20029;-64
2021/03/19 02:01:44;;;;;;;12.82;8.27;;;2.80;70.20;;;;;;5026853;28;20030;-64
2021/03/19 02:04:47;;;;;;;12.70;8.38;;;2.80;70.10;;;;;;5037019;28;20026;-64
2021/03/19 02:07:53;;;;;;;14.73;8.80;;;2.80;70.10;;;;;;5037829;28;20029;-64
2021/03/19 02:10:37;;;;;;;;;;;2.70;70.00;;;;;;5035020;28;20140;-64
2021/03/19 02:13:43;;;;;;;13.57;7.97;;;2.70;70.10;;;;;;5033469;28;19921;-64
2021/03/19 02:16:30;;;;;;;;;;;2.70;70.00;;;;;;5038980;28;20148;-64
2021/03/19 02:19:33;;;;;;;16.35;8.50;;;2.70;70.10;;;;;;5031263;28;19917;-64
2021/03/19 02:22:36;;;;;;;14.88;8.68;;;2.60;69.90;;;;;;5034598;28;20060;-64
2021/03/19 02:25:42;;;;;;;14.40;8.23;;;2.60;70.10;;;;;;5056832;28;20035;-64
2021/03/19 02:28:45;;;;;;;12.65;8.18;;;2.60;70.30;;;;;;5033767;28;20396;-63
2021/03/19 02:31:11;;;;;;;15.25;8.98;;;2.50;70.20;;;;;;5041052;28;20112;-64
2021/03/19 02:34:01;;;;;;;15.13;8.45;;;2.50;70.00;;;;;;5030591;28;20108;-63
2021/03/19 02:36:31;;;;;;;14.80;8.60;;;2.50;70.20;;;;;;5062662;28;20049;-64
2021/03/19 02:38:56;;;;;;;13.98;8.48;;;2.50;70.00;;;;;;5036790;28;20029;-64
2021/03/19 02:41:23;;;;;;;12.77;7.90;;;2.40;69.90;;;;;;5031987;28;20039;-63
2021/03/19 02:43:51;;;;;;;13.57;8.80;;;2.50;70.00;;;;;;5031843;28;20067;-65
2021/03/19 02:46:19;;;;;;;13.35;8.10;;;2.40;70.00;;;;;;5035124;28;20052;-63
2021/03/19 02:48:50;;;;;;;15.27;8.80;;;2.30;70.00;;;;;;5034198;28;20033;-64
2021/03/19 02:51:16;;;;;;;14.70;8.95;;;2.30;70.00;;;;;;5029438;28;20532;-64
2021/03/19 02:53:44;;;;;;;15.27;8.73;;;2.30;70.10;;;;;;5037523;28;20081;-64
2021/03/19 02:56:12;;;;;;;17.27;9.13;;;2.20;70.10;;;;;;5030914;28;20029;-64
2021/03/19 02:58:40;;;;;;;14.77;9.00;;;2.20;70.10;;;;;;5037142;28;20416;-64
2021/03/19 03:01:09;;;;;;;15.30;9.20;;;2.20;70.20;;;;;;5034640;28;20071;-64
2021/03/19 03:03:39;;;;;;;16.92;10.02;;;2.10;70.10;;;;;;5028172;28;20041;-64
2021/03/19 03:06:05;;;;;;;15.57;9.48;;;2.20;70.30;;;;;;5034326;28;20038;-65
2021/03/19 03:08:34;;;;;;;18.30;10.55;;;2.10;70.30;;;;;;5035031;28;20090;-63
2021/03/19 03:11:02;;;;;;;21.25;10.90;;;2.00;70.40;;;;;;5032837;28;20036;-64
2021/03/19 03:13:30;;;;;;;20.10;11.10;;;2.10;70.60;;;;;;5032793;28;20073;-65
2021/03/19 03:16:01;;;;;;;19.85;10.80;;;2.00;70.60;;;;;;5031293;28;20034;-64
2021/03/19 03:18:29;;;;;;;19.33;11.23;;;1.90;70.60;;;;;;5036442;28;20114;-65
2021/03/19 03:20:58;;;;;;;18.83;11.70;;;1.90;70.70;;;;;;5029727;28;20537;-64
2021/03/19 03:23:29;;;;;;;20.48;11.27;;;1.90;70.80;;;;;;5033190;28;20669;-64
2021/03/19 03:25:55;;;;;;;21.98;11.85;;;1.90;71.00;;;;;;5019229;28;20048;-65
2021/03/19 03:28:24;;;;;;;18.55;11.25;;;1.90;71.20;;;;;;5034321;28;20286;-65
2021/03/19 03:30:55;;;;;;;20.30;11.70;;;1.80;71.30;;;;;;5032902;28;20175;-64
2021/03/19 03:33:24;;;;;;;20.73;11.48;;;1.80;71.30;;;;;;5032690;28;20037;-64
2021/03/19 03:35:50;;;;;;;23.30;11.73;;;1.80;71.50;;;;;;5037129;28;20033;-63
2021/03/19 03:38:21;;;;;;;19.70;11.30;;;1.80;71.50;;;;;;5050282;28;20059;-64
2021/03/19 03:40:52;;;;;;;21.40;12.10;;;1.70;71.60;;;;;;5053929;28;20148;-65
2021/03/19 03:43:22;;;;;;;20.27;12.20;;;1.70;71.60;;;;;;5049199;28;20040;-64
2021/03/19 03:45:51;;;;;;;19.95;11.88;;;1.70;71.60;;;;;;5050489;28;20500;-63
2021/03/19 03:48:26;;;;;;;22.58;12.02;;;1.70;71.70;;;;;;5051776;28;20082;-64
2021/03/19 03:50:55;;;;;;;20.30;12.05;;;1.60;72.70;;;;;;5050929;28;20049;-64
2021/03/19 03:53:21;;;;;;;22.65;12.35;;;1.70;71.70;;;;;;5057741;28;20512;-64
2021/03/19 03:55:48;;;;;;;21.55;12.02;;;1.70;71.60;;;;;;5053595;28;20055;-65
2021/03/19 03:58:14;;;;;;;20.88;11.90;;;1.70;71.60;;;;;;5049277;28;20025;-64
2021/03/19 04:00:44;;;;;;;17.98;11.23;;;1.60;71.50;;;;;;5052427;28;20040;-64
2021/03/19 04:03:12;;;;;;;18.88;11.68;;;1.60;71.60;;;;;;5050703;28;20124;-64
2021/03/19 04:05:41;;;;;;;19.48;11.15;;;1.50;71.60;;;;;;5055487;28;20037;-64
2021/03/19 04:08:08;;;;;;;18.92;11.20;;;1.50;71.70;;;;;;5056325;28;20032;-64
2021/03/19 04:10:36;;;;;;;21.52;12.45;;;1.50;71.60;;;;;;5064342;28;20025;-64
2021/03/19 04:13:03;;;;;;;21.95;11.93;;;1.50;71.70;;;;;;5057947;28;20043;-64
2021/03/19 04:15:34;;;;;;;20.88;12.45;;;1.50;71.70;;;;;;5061317;28;20037;-65
2021/03/19 04:18:07;;;;;;;21.02;12.55;;;1.40;71.70;;;;;;5051073;28;20512;-64
2021/03/19 04:20:37;;;;;;;21.08;12.18;;;1.40;71.70;;;;;;5053810;28;20033;-64
2021/03/19 04:23:06;;;;;;;20.42;11.60;;;1.40;71.70;;;;;;5056817;28;20442;-64
2021/03/19 04:25:32;;;;;;;23.13;11.68;;;1.40;71.80;;;;;;5048022;28;20033;-63
2021/03/19 04:28:01;;;;;;;21.45;12.05;;;1.30;71.60;;;;;;5055974;28;20033;-64
2021/03/19 04:30:32;;;;;;;20.00;11.63;;;1.30;71.70;;;;;;5045740;28;20028;-64
2021/03/19 04:32:59;;;;;;;19.95;11.45;;;1.30;71.70;;;;;;5052937;28;20035;-64
2021/03/19 04:35:30;;;;;;;20.35;11.60;;;1.30;71.90;;;;;;5055209;28;20027;-64
2021/03/19 04:37:59;;;;;;;21.73;12.75;;;1.30;71.90;;;;;;5059703;28;20029;-64
2021/03/19 04:40:27;;;;;;;22.10;12.38;;;1.30;71.70;;;;;;5058467;28;20033;-64
2021/03/19 04:42:54;;;;;;;23.85;12.23;;;1.30;71.70;;;;;;5058783;28;20044;-64
2021/03/19 04:45:24;;;;;;;22.58;12.70;;;1.30;71.70;;;;;;5058728;28;20777;-65
2021/03/19 04:47:52;;;;;;;24.27;12.63;;;1.20;71.60;;;;;;5054260;28;20036;-65
2021/03/19 04:50:19;;;;;;;23.25;12.95;;;1.20;71.50;;;;;;5058361;28;20062;-63
2021/03/19 04:52:45;;;;;;;23.70;12.63;;;1.20;71.70;;;;;;5050748;28;20114;-64
2021/03/19 04:55:13;;;;;;;17.92;11.05;;;1.10;71.80;;;;;;5045984;28;20474;-65
2021/03/19 04:57:39;;;;;;;22.48;12.00;;;1.10;72.00;;;;;;5059331;28;20029;-64
2021/03/19 05:00:09;;;;;;;21.52;12.15;;;1.10;72.10;;;;;;5051362;28;20086;-64
2021/03/19 05:02:43;;;;;;;23.35;13.15;;;1.10;72.00;;;;;;5052071;28;20115;-64
2021/03/19 05:05:11;;;;;;;;;;;1.10;71.90;;;;;;5048287;28;20116;-64
2021/03/19 05:07:42;;;;;;;23.05;12.27;;;1.10;72.40;;;;;;5051013;28;19921;-64
2021/03/19 05:10:16;;;;;;;21.92;11.52;;;1.00;71.50;;;;;;5055505;28;20438;-64
2021/03/19 05:12:41;;;;;;;23.17;12.43;;;1.00;71.70;;;;;;5053425;28;20064;-64
2021/03/19 05:15:08;;;;;;;22.88;12.15;;;1.00;71.70;;;;;;5053674;28;20060;-64
2021/03/19 05:17:36;;;;;;;25.13;12.85;;;0.90;71.90;;;;;;5054283;28;20029;-69
2021/03/19 05:20:07;;;;;;;39.65;15.80;;;0.90;72.10;;;;;;5058030;28;20056;-64
2021/03/19 05:22:35;;;;;;;38.85;18.00;;;0.90;72.10;;;;;;5056355;28;20029;-64
2021/03/19 05:25:04;;;;;;;32.67;15.90;;;0.90;71.90;;;;;;5056626;28;20029;-65
2021/03/19 05:27:32;;;;;;;31.50;15.90;;;0.80;71.90;;;;;;5049057;28;20025;-65
2021/03/19 05:30:00;;;;;;;43.88;22.17;;;0.80;71.90;;;;;;5043666;28;20525;-65
2021/03/19 05:32:26;;;;;;;37.20;20.20;;;0.80;71.90;;;;;;5050328;28;20040;-65
2021/03/19 05:34:55;;;;;;;29.38;16.70;;;0.80;72.00;;;;;;5056083;28;20616;-66
2021/03/19 05:37:27;;;;;;;30.92;15.68;;;0.70;72.00;;;;;;5056124;28;20037;-65
2021/03/19 05:39:55;;;;;;;27.65;15.52;;;0.70;72.30;;;;;;5059803;28;20029;-66
2021/03/19 05:42:28;;;;;;;29.02;15.45;;;0.70;72.20;;;;;;5059889;28;20033;-64
2021/03/19 05:45:23;;;;;;;24.92;14.15;;;0.70;72.40;;;;;;5058330;28;20036;-65
2021/03/19 05:47:56;;;;;;;27.08;14.20;;;0.70;72.50;;;;;;5059557;28;20032;-65
2021/03/19 05:50:27;;;;;;;27.88;13.48;;;0.70;72.40;;;;;;5057919;28;20033;-65
2021/03/19 05:53:05;;;;;;;26.55;14.80;;;0.70;72.40;;;;;;5059719;28;20029;-65
2021/03/19 05:55:40;;;;;;;28.02;15.55;;;0.70;72.50;;;;;;5060538;28;20032;-65
2021/03/19 05:58:08;;;;;;;;;;;0.60;72.60;;;;;;5055586;28;20024;-65
2021/03/19 06:00:34;;;;;;;26.42;14.00;;;0.70;73.20;;;;;;5058526;28;19912;-65
2021/03/19 06:03:04;;;;;;;27.83;15.55;;;0.60;72.40;;;;;;5059949;28;20039;-65
2021/03/19 06:05:30;;;;;;;30.17;15.88;;;0.60;72.70;;;;;;5059949;28;20084;-65
2021/03/19 06:08:07;;;;;;;30.70;16.08;;;0.70;72.70;;;;;;5059906;28;20047;-65
2021/03/19 06:10:34;;;;;;;24.48;14.40;;;0.70;73.30;;;;;;5053892;28;20035;-64
2021/03/19 06:13:17;;;;;;;32.22;15.85;;;0.70;73.20;;;;;;5059062;28;20033;-65
2021/03/19 06:15:45;;;;;;;27.17;14.50;;;0.70;73.40;;;;;;5059767;28;20029;-65
2021/03/19 06:18:35;;;;;;;29.95;15.93;;;0.70;73.30;;;;;;5041589;28;20111;-66
2021/03/19 06:21:14;;;;;;;30.50;15.40;;;0.80;73.80;;;;;;5057632;28;20502;-65
2021/03/19 06:23:47;;;;;;;35.38;15.73;;;0.80;73.50;;;;;;5059035;28;20111;-65
2021/03/19 06:26:26;;;;;;;33.17;15.98;;;0.90;73.60;;;;;;5059098;28;20033;-65
2021/03/19 06:29:15;;;;;;;26.45;14.38;;;0.90;74.10;;;;;;5059042;28;20029;-65
2021/03/19 06:31:43;;;;;;;30.83;14.57;;;1.00;74.40;;;;;;5059255;28;20508;-65
2021/03/19 06:34:22;;;;;;;39.92;16.73;;;1.00;73.90;;;;;;5059125;28;20027;-65
2021/03/19 06:37:06;;;;;;;30.35;15.13;;;1.10;74.40;;;;;;5056690;28;20040;-64
2021/03/19 06:39:54;;;;;;;26.92;14.82;;;1.20;74.50;;;;;;5058775;28;20036;-65
2021/03/19 06:42:19;;;;;;;27.02;15.23;;;1.20;74.20;;;;;;5054516;28;20052;-64
2021/03/19 06:45:25;;;;;;;34.45;15.68;;;1.30;74.30;;;;;;5057188;28;20065;-65
2021/03/19 06:47:59;;;;;;;29.88;14.98;;;1.30;75.30;;;;;;5009189;28;20061;-65
2021/03/19 06:50:25;;;;;;;27.48;14.93;;;1.40;74.50;;;;;;5036453;28;20029;-65
2021/03/19 06:52:52;;;;;;;30.60;16.38;;;1.40;74.50;;;;;;5057692;28;20350;-65
2021/03/19 06:55:37;;;;;;;29.10;16.77;;;1.50;74.60;;;;;;5057667;28;20088;-65
2021/03/19 06:58:08;;;;;;;30.63;16.38;;;1.50;75.20;;;;;;5054464;28;20037;-65
2021/03/19 07:00:41;;;;;;;28.75;15.98;;;1.60;74.60;;;;;;5056130;28;20028;-65
2021/03/19 07:03:27;;;;;;;28.13;15.77;;;1.60;74.80;;;;;;5059155;28;20408;-65
2021/03/19 07:06:21;;;;;;;33.42;16.40;;;1.70;75.00;;;;;;5057149;28;20045;-65
2021/03/19 07:08:53;;;;;;;41.67;16.58;;;1.70;75.20;;;;;;5054914;28;20741;-65
2021/03/19 07:11:57;;;;;;;53.35;16.65;;;1.80;74.80;;;;;;5044861;28;20053;-64
2021/03/19 07:14:51;;;;;;;39.35;15.70;;;1.80;75.10;;;;;;5051665;28;20039;-65
2021/03/19 07:17:26;;;;;;;41.20;17.20;;;1.90;75.30;;;;;;5055948;28;20029;-65
2021/03/19 07:20:19;;;;;;;39.10;17.38;;;1.90;74.80;;;;;;5055554;28;20197;-65
2021/03/19 07:23:02;;;;;;;51.60;16.42;;;2.00;75.20;;;;;;5041327;28;20032;-65
2021/03/19 07:25:37;;;;;;;37.03;16.60;;;2.10;75.20;;;;;;5057267;28;20056;-65
2021/03/19 07:28:38;;;;;;;41.35;17.17;;;2.10;74.70;;;;;;5058142;28;20052;-65
2021/03/19 07:31:24;;;;;;;32.15;15.25;;;2.20;75.20;;;;;;5055598;28;20037;-64
2021/03/19 07:33:54;;;;;;;29.38;15.20;;;2.20;74.70;;;;;;5040740;28;20037;-64
2021/03/19 07:36:45;;;;;;;27.70;14.75;;;2.30;74.60;;;;;;5057769;28;20053;-65
2021/03/19 07:39:40;;;;;;;27.52;15.43;;;2.30;74.60;;;;;;5057970;28;20033;-64
2021/03/19 07:42:45;;;;;;;38.80;14.68;;;2.40;74.60;;;;;;5056311;28;20055;-64
2021/03/19 07:45:19;;;;;;;24.02;13.80;;;2.50;74.50;;;;;;5021225;28;20091;-64
2021/03/19 07:48:09;;;;;;;28.17;15.02;;;2.50;74.10;;;;;;5034439;28;20036;-64
2021/03/19 07:50:43;;;;;;;29.15;14.05;;;2.60;74.10;;;;;;5037669;28;20457;-64
2021/03/19 07:53:15;;;;;;;27.17;14.88;;;2.70;74.00;;;;;;5044030;28;20040;-64
2021/03/19 07:56:38;;;;;;;24.58;14.57;;;2.70;73.80;;;;;;5047362;28;20416;-63
2021/03/19 07:59:27;;;;;;;23.30;13.43;;;2.80;73.70;;;;;;5037205;28;20466;-64
2021/03/19 08:02:13;;;;;;;23.70;14.88;;;2.80;73.70;;;;;;5044575;28;21335;-64
2021/03/19 08:05:18;;;;;;;28.98;15.73;;;2.90;73.70;;;;;;5054553;28;20037;-64
2021/03/19 08:08:10;;;;;;;26.90;14.30;;;3.00;73.80;;;;;;5039943;28;20033;-63
2021/03/19 08:10:47;;;;;;;22.38;13.40;;;3.00;73.40;;;;;;5047512;28;20104;-64
2021/03/19 08:13:18;;;;;;;24.30;13.80;;;3.10;73.50;;;;;;5053039;28;20036;-64
2021/03/19 08:15:59;;;;;;;19.80;12.77;;;3.10;73.50;;;;;;5053070;28;20028;-64
2021/03/19 08:18:51;;;;;;;24.02;14.63;;;3.20;73.70;;;;;;5052788;28;20060;-64
2021/03/19 08:21:40;;;;;;;26.05;15.20;;;3.20;73.60;;;;;;5020088;28;20067;-64
2021/03/19 08:24:40;;;;;;;25.10;14.18;;;3.40;73.70;;;;;;5054932;28;20032;-64
2021/03/19 08:27:34;;;;;;;26.88;13.70;;;3.40;73.60;;;;;;5054218;28;20024;-63
2021/03/19 08:30:42;;;;;;;24.90;13.57;;;3.60;73.50;;;;;;5056395;28;20029;-64
2021/03/19 08:33:23;;;;;;;27.58;15.90;;;3.70;73.30;;;;;;5055725;28;20040;-64
2021/03/19 08:35:54;;;;;;;22.48;13.65;;;3.80;72.80;;;;;;5057940;28;20025;-63
2021/03/19 08:38:38;;;;;;;20.70;12.18;;;3.90;72.60;;;;;;5051449;28;20507;-64
2021/03/19 08:41:08;;;;;;;20.38;11.23;;;4.00;72.60;;;;;;5054937;28;20029;-65
2021/03/19 08:43:40;;;;;;;22.30;13.50;;;4.00;72.40;;;;;;5055780;28;20029;-64
2021/03/19 08:46:24;;;;;;;20.90;13.20;;;4.10;72.30;;;;;;5056414;28;20518;-64
2021/03/19 08:48:59;;;;;;;21.52;12.80;;;4.30;72.00;;;;;;5056712;28;20049;-64
2021/03/19 08:51:36;;;;;;;16.13;10.27;;;4.40;71.80;;;;;;5053073;28;20029;-65
2021/03/19 08:54:17;;;;;;;12.30;8.88;;;4.40;72.20;;;;;;5055789;28;20353;-65
2021/03/19 08:56:47;;;;;;;15.68;9.43;;;4.50;70.90;;;;;;5054231;28;20530;-65
2021/03/19 08:59:54;;;;;;;15.25;9.27;;;4.50;70.50;;;;;;5053264;28;20060;-65
2021/03/19 09:02:28;;;;;;;14.75;9.68;;;4.70;70.00;;;;;;5014386;28;20029;-65
2021/03/19 09:04:57;;;;;;;11.90;7.65;;;4.70;70.10;;;;;;5049418;28;20044;-65
2021/03/19 09:07:38;;;;;;;11.98;7.53;;;4.70;70.00;;;;;;5051085;28;20033;-65
2021/03/19 09:10:21;;;;;;;16.38;9.93;;;4.80;69.60;;;;;;5055381;28;20033;-65
2021/03/19 09:12:59;;;;;;;11.85;8.52;;;4.80;69.40;;;;;;5054938;28;20068;-63
2021/03/19 09:15:40;;;;;;;16.67;10.50;;;4.90;69.40;;;;;;5054854;28;20128;-65
2021/03/19 09:18:37;;;;;;;13.88;9.43;;;4.90;69.40;;;;;;5056009;28;20492;-64
2021/03/19 09:21:17;;;;;;;16.75;10.27;;;5.00;69.50;;;;;;5057222;28;20058;-65
2021/03/19 09:24:04;;;;;;;16.60;10.10;;;5.10;69.60;;;;;;5058070;28;20040;-64
2021/03/19 09:26:47;;;;;;;16.52;10.35;;;5.10;69.30;;;;;;5058965;28;20030;-65
2021/03/19 09:29:15;;;;;;;16.00;9.88;;;5.20;69.10;;;;;;5060966;28;20509;-65
2021/03/19 09:31:54;;;;;;;14.15;10.18;;;5.30;68.90;;;;;;5059916;28;20033;-64
2021/03/19 09:34:31;;;;;;;19.13;11.02;;;5.30;68.40;;;;;;5059504;28;20041;-64
2021/03/19 09:37:38;;;;;;;14.30;10.23;;;5.40;68.80;;;;;;5055679;28;20033;-64
2021/03/19 09:40:14;;;;;;;15.30;9.38;;;5.40;68.10;;;;;;5027316;28;20567;-65
2021/03/19 09:42:43;;;;;;;15.48;9.65;;;5.50;68.30;;;;;;5056927;28;20025;-65
2021/03/19 09:45:19;;;;;;;11.80;8.63;;;5.50;68.30;;;;;;5043016;28;20428;-65
2021/03/19 09:48:01;;;;;;;12.70;8.27;;;5.50;67.90;;;;;;5059642;28;20036;-65
2021/03/19 09:50:33;;;;;;;14.00;8.70;;;5.60;67.50;;;;;;5059139;28;20411;-65
2021/03/19 09:53:00;;;;;;;14.57;10.00;;;5.60;67.50;;;;;;5058927;28;20083;-65
2021/03/19 09:55:45;;;;;;;20.85;9.88;;;5.70;67.80;;;;;;5059496;28;20036;-65
2021/03/19 09:58:44;;;;;;;13.65;9.55;;;5.70;66.80;;;;;;5057675;28;20040;-64
2021/03/19 10:01:22;;;;;;;15.13;9.55;;;5.80;65.40;;;;;;5054131;28;20033;-65
2021/03/19 10:03:52;;;;;;;12.27;8.13;;;5.80;65.50;;;;;;5042806;28;20456;-65
2021/03/19 10:06:45;;;;;;;13.38;8.63;;;5.70;65.30;;;;;;5059417;28;20535;-67
2021/03/19 10:09:21;;;;;;;12.52;7.85;;;5.70;64.90;;;;;;5022627;28;20032;-64
2021/03/19 10:11:51;;;;;;;14.60;10.20;;;5.70;65.50;;;;;;5053992;28;20111;-65
2021/03/19 10:14:39;;;;;;;13.35;9.23;;;5.70;66.10;;;;;;5059014;28;20508;-65
2021/03/19 10:17:26;;;;;;;14.25;9.50;;;5.80;66.20;;;;;;5057532;28;20033;-65
2021/03/19 10:20:15;;;;;;;16.27;10.32;;;5.80;65.60;;;;;;5042390;28;20033;-65
2021/03/19 10:22:45;;;;;;;15.32;9.30;;;5.90;66.00;;;;;;5056374;28;20044;-65
2021/03/19 10:25:14;;;;;;;14.50;10.55;;;6.00;66.30;;;;;;5056538;28;20032;-65
2021/03/19 10:27:50;;;;;;;16.65;11.63;;;6.10;66.10;;;;;;5057643;28;20564;-65
2021/03/19 10:30:28;;;;;;;14.85;9.98;;;6.10;66.00;;;;;;5057809;28;20033;-65
2021/03/19 10:33:02;;;;;;;14.02;8.85;;;6.20;66.10;;;;;;5055084;28;20492;-65
2021/03/19 10:35:35;;;;;;;12.00;8.18;;;6.30;66.10;;;;;;5056822;28;20507;-65
2021/03/19 10:38:15;;;;;;;11.35;7.63;;;6.40;65.10;;;;;;5058137;28;20036;-65
2021/03/19 10:40:48;;;;;;;9.05;7.28;;;6.40;62.50;;;;;;5057058;28;20040;-65
2021/03/19 10:43:17;;;;;;;12.75;8.93;;;6.40;62.50;;;;;;5057353;28;20064;-65
2021/03/19 10:46:14;;;;;;;13.43;9.55;;;6.40;63.10;;;;;;5058229;28;20029;-65
2021/03/19 10:48:57;;;;;;;15.40;9.98;;;6.40;63.80;;;;;;5056518;28;20516;-65
2021/03/19 10:51:28;;;;;;;19.83;12.35;;;6.40;63.80;;;;;;5058583;28;20036;-65
2021/03/19 10:54:13;;;;;;;15.43;10.50;;;6.40;64.40;;;;;;5057860;28;20024;-65
2021/03/19 10:57:11;;;;;;;16.30;9.93;;;6.50;64.40;;;;;;5041675;28;20071;-65
2021/03/19 10:59:40;;;;;;;14.30;9.98;;;6.50;64.20;;;;;;5055981;28;20044;-65
2021/03/19 11:02:15;;;;;;;16.80;9.27;;;6.50;64.60;;;;;;5061742;28;20025;-65
2021/03/19 11:05:01;;;;;;;14.25;8.70;;;6.50;64.00;;;;;;5057177;28;20159;-65
2021/03/19 11:07:28;;;;;;;13.07;9.18;;;6.50;63.90;;;;;;5058402;28;20032;-65
2021/03/19 11:10:09;;;;;;;9.70;7.60;;;6.50;64.40;;;;;;5056737;28;20041;-65
2021/03/19 11:12:41;;;;;;;11.93;7.90;;;6.50;63.30;;;;;;5038601;28;20036;-65
2021/03/19 11:15:31;;;;;;;12.57;8.93;;;6.60;63.60;;;;;;5058141;28;20036;-65
2021/03/19 11:18:26;;;;;;;13.30;9.60;;;6.60;63.50;;;;;;5051950;28;20025;-65
2021/03/19 11:20:55;;;;;;;;;;;6.60;64.70;;;;;;5057350;28;20036;-65
2021/03/19 11:23:37;;;;;;;15.43;9.18;;;6.70;64.50;;;;;;5056172;28;19939;-65
2021/03/19 11:26:20;;;;;;;14.55;9.02;;;6.70;64.50;;;;;;5058308;28;20120;-65
2021/03/19 11:28:49;;;;;;;14.32;10.00;;;6.80;64.50;;;;;;5057194;28;20112;-65
2021/03/19 11:31:29;;;;;;;14.18;9.38;;;6.80;64.50;;;;;;5057853;28;20043;-65
2021/03/19 11:33:59;;;;;;;14.38;9.95;;;6.80;64.10;;;;;;5058156;28;20036;-66
2021/03/19 11:36:26;;;;;;;13.38;9.27;;;6.70;64.30;;;;;;5057456;28;20032;-66
2021/03/19 11:38:53;;;;;;;13.27;9.38;;;6.70;64.50;;;;;;5058087;28;20063;-66
2021/03/19 11:41:32;;;;;;;14.50;9.38;;;6.70;64.50;;;;;;5058215;28;20025;-66
2021/03/19 11:44:02;;;;;;;14.60;9.27;;;6.80;64.50;;;;;;5050909;28;20040;-66
2021/03/19 11:46:31;;;;;;;15.40;8.88;;;6.80;64.90;;;;;;5052943;28;20041;-66
2021/03/19 11:48:57;;;;;;;12.30;8.18;;;6.90;64.80;;;;;;5054776;28;20915;-66
2021/03/19 11:51:38;;;;;;;11.63;7.75;;;7.00;64.50;;;;;;5056227;28;20040;-66
2021/03/19 11:54:08;;;;;;;8.88;7.18;;;7.10;63.30;;;;;;5057486;28;20033;-66
2021/03/19 11:56:34;;;;;;;10.52;7.45;;;7.10;63.30;;;;;;5054796;28;20365;-66
2021/03/19 11:58:59;;;;;;;11.88;7.53;;;7.20;62.70;;;;;;5056817;28;20543;-66
2021/03/19 12:01:31;;;;;;;13.18;7.65;;;7.20;62.60;;;;;;5055572;28;20040;-66
2021/03/19 12:03:58;;;;;;;15.43;8.27;;;7.30;62.20;;;;;;5056922;28;20042;-66
2021/03/19 12:06:27;;;;;;;12.27;7.50;;;7.30;62.00;;;;;;5052722;28;20569;-66
2021/03/19 12:08:55;;;;;;;9.98;7.38;;;7.30;61.70;;;;;;5056827;28;20025;-66
2021/03/19 12:11:31;;;;;;;10.35;6.88;;;7.30;62.00;;;;;;5050967;28;20036;-66
2021/03/19 12:13:59;;;;;;;15.48;8.40;;;7.40;62.00;;;;;;5053726;28;20458;-67
2021/03/19 12:16:28;;;;;;;12.68;7.88;;;7.50;61.80;;;;;;5056508;28;20037;-66
2021/03/19 12:18:56;;;;;;;8.60;6.93;;;7.50;61.40;;;;;;5056363;28;20039;-66
2021/03/19 12:21:24;;;;;;;10.40;7.18;;;7.60;61.30;;;;;;5056156;28;20037;-66
2021/03/19 12:23:50;;;;;;;13.30;7.05;;;7.70;61.50;;;;;;5057079;28;20036;-66
2021/03/19 12:26:23;;;;;;;11.25;8.40;;;7.70;61.60;;;;;;5056621;28;20531;-66
2021/03/19 12:28:48;;;;;;;8.80;7.35;;;7.70;61.20;;;;;;5057501;28;20064;-66
2021/03/19 12:31:16;;;;;;;12.50;8.30;;;7.70;61.00;;;;;;5054046;28;20059;-66
2021/03/19 12:33:47;;;;;;;9.23;7.00;;;7.60;60.30;;;;;;5053537;28;20116;-66
2021/03/19 12:36:16;;;;;;;10.00;7.10;;;7.50;59.90;;;;;;5055568;28;20037;-66
2021/03/19 12:38:44;;;;;;;9.02;7.30;;;7.30;60.00;;;;;;5056647;28;20036;-66
2021/03/19 12:41:12;;;;;;;10.75;7.82;;;7.00;60.40;;;;;;5051731;28;20025;-66
2021/03/19 12:43:44;;;;;;;11.52;8.60;;;6.80;61.20;;;;;;5055430;28;20065;-66
2021/03/19 12:46:14;;;;;;;11.00;8.68;;;6.60;61.70;;;;;;5056110;28;20470;-66
2021/03/19 12:48:40;;;;;;;11.02;8.88;;;6.40;62.40;;;;;;5070257;28;21203;-66
2021/03/19 12:51:08;;;;;;;11.93;9.02;;;6.20;63.10;;;;;;5057041;28;20162;-66
2021/03/19 12:53:38;;;;;;;12.52;9.38;;;6.10;63.60;;;;;;5055494;28;20119;-66
2021/03/19 12:56:08;;;;;;;9.82;7.80;;;5.90;64.10;;;;;;5058404;28;20079;-66
2021/03/19 12:58:36;;;;;;;11.10;8.40;;;5.80;65.60;;;;;;5058716;28;20496;-67
2021/03/19 13:01:07;;;;;;;9.27;7.00;;;5.80;65.20;;;;;;5042469;28;20020;-67
2021/03/19 13:03:35;;;;;;;6.10;4.68;;;5.80;65.30;;;;;;5056495;28;20617;-66
2021/03/19 13:06:05;;;;;;;4.88;4.22;;;5.80;66.10;;;;;;5058638;28;20039;-66
2021/03/19 13:08:36;;;;;;;4.38;3.97;;;5.70;66.80;;;;;;5060342;28;20086;-66
2021/03/19 13:11:04;;;;;;;4.10;3.67;;;5.70;67.20;;;;;;5053435;28;20041;-66
2021/03/19 13:13:32;;;;;;;4.13;3.47;;;5.60;66.90;;;;;;5060310;28;20057;-66
2021/03/19 13:15:58;;;;;;;3.70;3.22;;;5.50;67.70;;;;;;5059494;28;20025;-66
2021/03/19 13:18:23;;;;;;;3.80;3.42;;;5.40;67.80;;;;;;5058094;28;20036;-66
2021/03/19 13:20:51;;;;;;;4.28;3.78;;;5.20;68.40;;;;;;5060105;28;20032;-66
2021/03/19 13:23:20;;;;;;;5.00;3.20;;;5.10;68.80;;;;;;5059264;28;20196;-66
2021/03/19 13:25:48;;;;;;;4.38;3.40;;;5.00;68.80;;;;;;5059773;28;20028;-66